sensor_id;sensor_type;location;lat;lon;timestamp;P1;durP1;ratioP1;P2;durP2;ratioP2
15915;SDS011;8057;47.830;-3.870;2022-12-05T00:00:03;30.37;;;22.30;;
15915;SDS011;8057;47.830;-3.870;2022-12-05T00:04:14;28.70;;;21.17;;
15915;SDS011;8057;47.830;-3.870;2022-12-05T00:08:24;32.53;;;22.90;;
15915;SDS011;8057;47.830;-3.870;2022-12-05T00:12:33;31.37;;;21.80;;
15915;SDS011;8057;47.830;-3.870;2022-12-05T00:16:43;30.07;;;22.20;;
15915;SDS011;8057;47.830;-3.870;2022-12-05T00:20:52;29.83;;;21.20;;
15915;SDS011;8057;47.830;-3.870;2022-12-05T00:25:03;29.73;;;21.33;;
15915;SDS011;8057;47.830;-3.870;2022-12-05T00:29:14;30.50;;;21.33;;
15915;SDS011;8057;47.830;-3.870;2022-12-05T00:33:23;27.80;;;20.57;;
15915;SDS011;8057;47.830;-3.870;2022-12-05T00:37:32;29.77;;;20.00;;
15915;SDS011;8057;47.830;-3.870;2022-12-05T00:41:42;30.20;;;21.00;;
15915;SDS011;8057;47.830;-3.870;2022-12-05T00:45:52;31.03;;;21.60;;
15915;SDS011;8057;47.830;-3.870;2022-12-05T00:50:01;25.60;;;19.63;;
15915;SDS011;8057;47.830;-3.870;2022-12-05T00:54:12;27.60;;;19.67;;
15915;SDS011;8057;47.830;-3.870;2022-12-05T00:58:24;28.80;;;20.77;;
15915;SDS011;8057;47.830;-3.870;2022-12-05T01:02:34;25.17;;;18.67;;
15915;SDS011;8057;47.830;-3.870;2022-12-05T01:06:43;25.43;;;19.07;;
15915;SDS011;8057;47.830;-3.870;2022-12-05T01:10:53;28.33;;;20.07;;
15915;SDS011;8057;47.830;-3.870;2022-12-05T01:15:05;26.40;;;19.80;;
15915;SDS011;8057;47.830;-3.870;2022-12-05T01:19:16;28.07;;;19.40;;
15915;SDS011;8057;47.830;-3.870;2022-12-05T01:23:26;26.80;;;19.70;;
15915;SDS011;8057;47.830;-3.870;2022-12-05T01:27:35;26.43;;;18.93;;
15915;SDS011;8057;47.830;-3.870;2022-12-05T01:31:46;25.17;;;17.47;;
15915;SDS011;8057;47.830;-3.870;2022-12-05T01:35:56;26.93;;;18.77;;
15915;SDS011;8057;47.830;-3.870;2022-12-05T01:40:05;24.97;;;17.70;;
15915;SDS011;8057;47.830;-3.870;2022-12-05T01:49:13;24.67;;;18.10;;
15915;SDS011;8057;47.830;-3.870;2022-12-05T01:53:24;22.83;;;17.00;;
15915;SDS011;8057;47.830;-3.870;2022-12-05T01:57:34;23.63;;;17.77;;
15915;SDS011;8057;47.830;-3.870;2022-12-05T02:01:44;25.10;;;17.70;;
15915;SDS011;8057;47.830;-3.870;2022-12-05T02:05:55;22.43;;;16.63;;
15915;SDS011;8057;47.830;-3.870;2022-12-05T02:10:06;25.40;;;18.70;;
15915;SDS011;8057;47.830;-3.870;2022-12-05T02:14:19;26.13;;;18.10;;
15915;SDS011;8057;47.830;-3.870;2022-12-05T02:18:42;23.80;;;17.27;;
15915;SDS011;8057;47.830;-3.870;2022-12-05T02:27:42;28.67;;;19.37;;
15915;SDS011;8057;47.830;-3.870;2022-12-05T02:32:09;28.33;;;18.47;;
15915;SDS011;8057;47.830;-3.870;2022-12-05T02:36:26;26.97;;;19.40;;
15915;SDS011;8057;47.830;-3.870;2022-12-05T02:40:46;30.50;;;20.00;;
15915;SDS011;8057;47.830;-3.870;2022-12-05T02:45:02;25.67;;;18.53;;
15915;SDS011;8057;47.830;-3.870;2022-12-05T02:49:17;27.30;;;18.60;;
15915;SDS011;8057;47.830;-3.870;2022-12-05T02:53:30;25.93;;;17.13;;
15915;SDS011;8057;47.830;-3.870;2022-12-05T02:57:42;25.80;;;17.43;;
15915;SDS011;8057;47.830;-3.870;2022-12-05T03:01:56;22.60;;;16.17;;
15915;SDS011;8057;47.830;-3.870;2022-12-05T03:06:08;24.77;;;17.93;;
15915;SDS011;8057;47.830;-3.870;2022-12-05T03:10:21;27.83;;;18.47;;
15915;SDS011;8057;47.830;-3.870;2022-12-05T03:14:34;25.93;;;17.40;;
15915;SDS011;8057;47.830;-3.870;2022-12-05T03:18:46;24.90;;;18.30;;
15915;SDS011;8057;47.830;-3.870;2022-12-05T03:23:01;29.37;;;19.70;;
15915;SDS011;8057;47.830;-3.870;2022-12-05T03:27:17;29.13;;;19.50;;
15915;SDS011;8057;47.830;-3.870;2022-12-05T03:31:38;26.50;;;18.30;;
15915;SDS011;8057;47.830;-3.870;2022-12-05T03:35:50;27.47;;;18.50;;
15915;SDS011;8057;47.830;-3.870;2022-12-05T03:40:10;30.50;;;19.47;;
15915;SDS011;8057;47.830;-3.870;2022-12-05T03:44:27;29.03;;;18.70;;
15915;SDS011;8057;47.830;-3.870;2022-12-05T03:48:42;26.83;;;18.53;;
15915;SDS011;8057;47.830;-3.870;2022-12-05T03:53:01;28.83;;;18.43;;
15915;SDS011;8057;47.830;-3.870;2022-12-05T03:57:28;31.33;;;19.83;;
15915;SDS011;8057;47.830;-3.870;2022-12-05T04:01:41;32.67;;;19.97;;
15915;SDS011;8057;47.830;-3.870;2022-12-05T04:05:53;34.37;;;20.27;;
15915;SDS011;8057;47.830;-3.870;2022-12-05T04:10:05;29.70;;;19.37;;
15915;SDS011;8057;47.830;-3.870;2022-12-05T04:14:23;29.93;;;19.63;;
15915;SDS011;8057;47.830;-3.870;2022-12-05T04:18:41;30.13;;;18.93;;
15915;SDS011;8057;47.830;-3.870;2022-12-05T04:22:53;39.63;;;18.93;;
15915;SDS011;8057;47.830;-3.870;2022-12-05T04:27:05;30.70;;;18.90;;
15915;SDS011;8057;47.830;-3.870;2022-12-05T04:31:24;32.00;;;18.93;;
15915;SDS011;8057;47.830;-3.870;2022-12-05T04:35:40;26.77;;;18.57;;
15915;SDS011;8057;47.830;-3.870;2022-12-05T04:39:54;30.13;;;19.60;;
15915;SDS011;8057;47.830;-3.870;2022-12-05T04:44:07;25.30;;;17.63;;
15915;SDS011;8057;47.830;-3.870;2022-12-05T04:48:20;26.07;;;17.63;;
15915;SDS011;8057;47.830;-3.870;2022-12-05T04:52:32;27.57;;;17.80;;
15915;SDS011;8057;47.830;-3.870;2022-12-05T04:56:42;29.80;;;17.73;;
15915;SDS011;8057;47.830;-3.870;2022-12-05T05:00:56;26.43;;;18.20;;
15915;SDS011;8057;47.830;-3.870;2022-12-05T05:05:12;26.03;;;16.87;;
15915;SDS011;8057;47.830;-3.870;2022-12-05T05:09:25;28.13;;;17.87;;
15915;SDS011;8057;47.830;-3.870;2022-12-05T05:13:34;29.00;;;18.87;;
15915;SDS011;8057;47.830;-3.870;2022-12-05T05:17:43;27.67;;;17.97;;
15915;SDS011;8057;47.830;-3.870;2022-12-05T05:21:54;30.57;;;19.50;;
15915;SDS011;8057;47.830;-3.870;2022-12-05T05:26:03;30.17;;;18.33;;
15915;SDS011;8057;47.830;-3.870;2022-12-05T05:30:13;30.90;;;20.50;;
15915;SDS011;8057;47.830;-3.870;2022-12-05T05:34:22;33.87;;;20.17;;
15915;SDS011;8057;47.830;-3.870;2022-12-05T05:38:36;35.17;;;19.73;;
15915;SDS011;8057;47.830;-3.870;2022-12-05T05:42:46;32.60;;;19.77;;
15915;SDS011;8057;47.830;-3.870;2022-12-05T05:46:56;32.10;;;20.07;;
15915;SDS011;8057;47.830;-3.870;2022-12-05T05:51:06;29.97;;;19.13;;
15915;SDS011;8057;47.830;-3.870;2022-12-05T05:55:19;30.53;;;19.27;;
15915;SDS011;8057;47.830;-3.870;2022-12-05T05:59:28;31.50;;;18.90;;
15915;SDS011;8057;47.830;-3.870;2022-12-05T06:03:37;32.83;;;20.90;;
15915;SDS011;8057;47.830;-3.870;2022-12-05T06:07:47;30.73;;;19.33;;
15915;SDS011;8057;47.830;-3.870;2022-12-05T06:11:58;33.33;;;19.60;;
15915;SDS011;8057;47.830;-3.870;2022-12-05T06:16:08;34.40;;;19.80;;
15915;SDS011;8057;47.830;-3.870;2022-12-05T06:20:19;33.00;;;20.77;;
15915;SDS011;8057;47.830;-3.870;2022-12-05T06:24:28;30.83;;;18.77;;
15915;SDS011;8057;47.830;-3.870;2022-12-05T06:28:40;34.23;;;19.47;;
15915;SDS011;8057;47.830;-3.870;2022-12-05T06:32:50;35.83;;;21.80;;
15915;SDS011;8057;47.830;-3.870;2022-12-05T06:36:59;31.93;;;20.33;;
15915;SDS011;8057;47.830;-3.870;2022-12-05T06:41:09;30.27;;;19.60;;
15915;SDS011;8057;47.830;-3.870;2022-12-05T06:45:22;32.90;;;20.30;;
15915;SDS011;8057;47.830;-3.870;2022-12-05T06:49:31;26.40;;;17.73;;
15915;SDS011;8057;47.830;-3.870;2022-12-05T06:53:43;31.43;;;19.97;;
15915;SDS011;8057;47.830;-3.870;2022-12-05T06:57:52;30.70;;;18.70;;
15915;SDS011;8057;47.830;-3.870;2022-12-05T07:02:03;29.27;;;19.20;;
15915;SDS011;8057;47.830;-3.870;2022-12-05T07:06:14;30.40;;;18.87;;
15915;SDS011;8057;47.830;-3.870;2022-12-05T07:10:24;29.53;;;19.37;;
15915;SDS011;8057;47.830;-3.870;2022-12-05T07:14:33;28.23;;;18.83;;
15915;SDS011;8057;47.830;-3.870;2022-12-05T07:18:55;27.93;;;17.87;;
15915;SDS011;8057;47.830;-3.870;2022-12-05T07:23:05;30.40;;;19.80;;
15915;SDS011;8057;47.830;-3.870;2022-12-05T07:27:14;25.30;;;17.73;;
15915;SDS011;8057;47.830;-3.870;2022-12-05T07:31:32;27.90;;;18.53;;
15915;SDS011;8057;47.830;-3.870;2022-12-05T07:35:44;27.07;;;17.93;;
15915;SDS011;8057;47.830;-3.870;2022-12-05T07:39:53;25.83;;;17.77;;
15915;SDS011;8057;47.830;-3.870;2022-12-05T07:44:02;27.63;;;18.77;;
15915;SDS011;8057;47.830;-3.870;2022-12-05T07:48:12;28.53;;;18.50;;
15915;SDS011;8057;47.830;-3.870;2022-12-05T07:52:26;26.97;;;17.30;;
15915;SDS011;8057;47.830;-3.870;2022-12-05T07:56:35;28.37;;;17.80;;
15915;SDS011;8057;47.830;-3.870;2022-12-05T08:00:52;30.50;;;19.60;;
15915;SDS011;8057;47.830;-3.870;2022-12-05T08:05:02;28.37;;;18.20;;
15915;SDS011;8057;47.830;-3.870;2022-12-05T08:09:13;29.60;;;18.93;;
15915;SDS011;8057;47.830;-3.870;2022-12-05T08:13:22;30.90;;;19.00;;
15915;SDS011;8057;47.830;-3.870;2022-12-05T08:17:31;30.63;;;19.80;;
15915;SDS011;8057;47.830;-3.870;2022-12-05T08:21:40;30.37;;;19.27;;
15915;SDS011;8057;47.830;-3.870;2022-12-05T08:25:51;28.70;;;17.97;;
15915;SDS011;8057;47.830;-3.870;2022-12-05T08:30:00;30.77;;;19.17;;
15915;SDS011;8057;47.830;-3.870;2022-12-05T08:34:10;30.53;;;19.00;;
15915;SDS011;8057;47.830;-3.870;2022-12-05T08:38:20;31.47;;;19.00;;
15915;SDS011;8057;47.830;-3.870;2022-12-05T08:42:31;29.07;;;18.10;;
15915;SDS011;8057;47.830;-3.870;2022-12-05T08:46:40;31.00;;;20.00;;
15915;SDS011;8057;47.830;-3.870;2022-12-05T08:50:51;29.90;;;19.27;;
15915;SDS011;8057;47.830;-3.870;2022-12-05T08:55:00;27.50;;;17.67;;
15915;SDS011;8057;47.830;-3.870;2022-12-05T08:59:13;28.27;;;18.10;;
15915;SDS011;8057;47.830;-3.870;2022-12-05T09:03:22;26.50;;;17.47;;
15915;SDS011;8057;47.830;-3.870;2022-12-05T09:07:31;28.27;;;18.23;;
15915;SDS011;8057;47.830;-3.870;2022-12-05T09:11:42;27.77;;;17.43;;
15915;SDS011;8057;47.830;-3.870;2022-12-05T09:15:58;27.00;;;17.93;;
15915;SDS011;8057;47.830;-3.870;2022-12-05T09:20:12;29.37;;;17.70;;
15915;SDS011;8057;47.830;-3.870;2022-12-05T09:24:21;30.30;;;19.70;;
15915;SDS011;8057;47.830;-3.870;2022-12-05T09:28:30;30.90;;;18.57;;
15915;SDS011;8057;47.830;-3.870;2022-12-05T09:32:42;28.20;;;17.53;;
15915;SDS011;8057;47.830;-3.870;2022-12-05T09:36:51;28.63;;;17.57;;
15915;SDS011;8057;47.830;-3.870;2022-12-05T09:41:19;29.30;;;17.97;;
15915;SDS011;8057;47.830;-3.870;2022-12-05T09:45:53;29.53;;;17.87;;
15915;SDS011;8057;47.830;-3.870;2022-12-05T09:50:16;29.20;;;18.93;;
15915;SDS011;8057;47.830;-3.870;2022-12-05T09:54:29;29.40;;;18.20;;
15915;SDS011;8057;47.830;-3.870;2022-12-05T09:58:39;26.03;;;18.53;;
15915;SDS011;8057;47.830;-3.870;2022-12-05T10:02:52;26.90;;;19.03;;
15915;SDS011;8057;47.830;-3.870;2022-12-05T10:07:11;27.57;;;18.67;;
15915;SDS011;8057;47.830;-3.870;2022-12-05T10:11:30;27.53;;;18.13;;
15915;SDS011;8057;47.830;-3.870;2022-12-05T10:15:46;26.67;;;17.93;;
15915;SDS011;8057;47.830;-3.870;2022-12-05T10:20:04;27.53;;;16.77;;
15915;SDS011;8057;47.830;-3.870;2022-12-05T10:24:22;25.00;;;16.27;;
15915;SDS011;8057;47.830;-3.870;2022-12-05T10:28:38;24.67;;;16.80;;
15915;SDS011;8057;47.830;-3.870;2022-12-05T10:32:54;26.07;;;16.77;;
15915;SDS011;8057;47.830;-3.870;2022-12-05T10:37:09;23.27;;;15.67;;
15915;SDS011;8057;47.830;-3.870;2022-12-05T10:41:24;22.90;;;14.63;;
15915;SDS011;8057;47.830;-3.870;2022-12-05T10:45:34;23.17;;;15.43;;
15915;SDS011;8057;47.830;-3.870;2022-12-05T10:49:49;22.27;;;15.13;;
15915;SDS011;8057;47.830;-3.870;2022-12-05T10:53:58;22.63;;;15.13;;
15915;SDS011;8057;47.830;-3.870;2022-12-05T10:58:11;19.60;;;13.53;;
15915;SDS011;8057;47.830;-3.870;2022-12-05T11:02:25;23.27;;;15.03;;
15915;SDS011;8057;47.830;-3.870;2022-12-05T11:06:36;19.90;;;14.23;;
15915;SDS011;8057;47.830;-3.870;2022-12-05T11:10:45;20.03;;;13.40;;
15915;SDS011;8057;47.830;-3.870;2022-12-05T11:14:58;24.17;;;15.20;;
15915;SDS011;8057;47.830;-3.870;2022-12-05T11:19:17;19.57;;;13.53;;
15915;SDS011;8057;47.830;-3.870;2022-12-05T11:23:32;22.37;;;14.00;;
15915;SDS011;8057;47.830;-3.870;2022-12-05T11:27:41;23.40;;;14.80;;
15915;SDS011;8057;47.830;-3.870;2022-12-05T11:31:52;18.63;;;13.47;;
15915;SDS011;8057;47.830;-3.870;2022-12-05T11:36:03;20.73;;;14.63;;
15915;SDS011;8057;47.830;-3.870;2022-12-05T11:40:20;20.93;;;13.80;;
15915;SDS011;8057;47.830;-3.870;2022-12-05T11:44:56;19.43;;;14.00;;
15915;SDS011;8057;47.830;-3.870;2022-12-05T11:49:30;20.00;;;12.90;;
15915;SDS011;8057;47.830;-3.870;2022-12-05T11:58:55;21.00;;;12.80;;
15915;SDS011;8057;47.830;-3.870;2022-12-05T12:08:08;18.77;;;12.23;;
15915;SDS011;8057;47.830;-3.870;2022-12-05T12:12:27;18.97;;;12.40;;
15915;SDS011;8057;47.830;-3.870;2022-12-05T12:16:45;17.53;;;12.33;;
15915;SDS011;8057;47.830;-3.870;2022-12-05T12:21:06;18.93;;;12.97;;
15915;SDS011;8057;47.830;-3.870;2022-12-05T12:25:29;17.70;;;12.63;;
15915;SDS011;8057;47.830;-3.870;2022-12-05T12:29:49;17.90;;;12.17;;
15915;SDS011;8057;47.830;-3.870;2022-12-05T12:34:12;16.53;;;11.37;;
15915;SDS011;8057;47.830;-3.870;2022-12-05T12:38:43;18.60;;;12.03;;
15915;SDS011;8057;47.830;-3.870;2022-12-05T12:43:26;16.10;;;11.63;;
15915;SDS011;8057;47.830;-3.870;2022-12-05T12:48:07;17.33;;;11.27;;
15915;SDS011;8057;47.830;-3.870;2022-12-05T12:52:26;15.83;;;11.20;;
15915;SDS011;8057;47.830;-3.870;2022-12-05T12:56:45;14.20;;;10.67;;
15915;SDS011;8057;47.830;-3.870;2022-12-05T13:01:06;16.93;;;12.10;;
15915;SDS011;8057;47.830;-3.870;2022-12-05T13:05:25;17.47;;;11.47;;
15915;SDS011;8057;47.830;-3.870;2022-12-05T13:09:41;14.83;;;10.73;;
15915;SDS011;8057;47.830;-3.870;2022-12-05T13:13:57;17.40;;;11.73;;
15915;SDS011;8057;47.830;-3.870;2022-12-05T13:18:12;17.40;;;11.93;;
15915;SDS011;8057;47.830;-3.870;2022-12-05T13:22:24;18.80;;;11.67;;
15915;SDS011;8057;47.830;-3.870;2022-12-05T13:26:35;15.63;;;11.33;;
15915;SDS011;8057;47.830;-3.870;2022-12-05T13:30:55;17.53;;;11.53;;
15915;SDS011;8057;47.830;-3.870;2022-12-05T13:35:09;17.60;;;12.27;;
15915;SDS011;8057;47.830;-3.870;2022-12-05T13:39:19;15.60;;;11.43;;
15915;SDS011;8057;47.830;-3.870;2022-12-05T13:43:51;19.50;;;13.00;;
15915;SDS011;8057;47.830;-3.870;2022-12-05T13:48:13;17.10;;;12.53;;
15915;SDS011;8057;47.830;-3.870;2022-12-05T13:52:30;17.33;;;12.27;;
15915;SDS011;8057;47.830;-3.870;2022-12-05T13:56:48;17.73;;;11.73;;
15915;SDS011;8057;47.830;-3.870;2022-12-05T14:05:51;16.37;;;12.10;;
15915;SDS011;8057;47.830;-3.870;2022-12-05T14:10:03;17.43;;;12.50;;
15915;SDS011;8057;47.830;-3.870;2022-12-05T14:14:13;16.77;;;11.83;;
15915;SDS011;8057;47.830;-3.870;2022-12-05T14:18:57;17.13;;;11.10;;
15915;SDS011;8057;47.830;-3.870;2022-12-05T14:27:53;13.67;;;10.67;;
15915;SDS011;8057;47.830;-3.870;2022-12-05T14:32:09;16.47;;;11.63;;
15915;SDS011;8057;47.830;-3.870;2022-12-05T14:36:26;15.80;;;11.33;;
15915;SDS011;8057;47.830;-3.870;2022-12-05T14:40:38;16.63;;;11.40;;
15915;SDS011;8057;47.830;-3.870;2022-12-05T14:44:50;16.40;;;11.00;;
15915;SDS011;8057;47.830;-3.870;2022-12-05T14:53:46;14.97;;;10.57;;
15915;SDS011;8057;47.830;-3.870;2022-12-05T14:57:57;16.03;;;10.63;;
15915;SDS011;8057;47.830;-3.870;2022-12-05T15:02:13;14.27;;;10.60;;
15915;SDS011;8057;47.830;-3.870;2022-12-05T15:06:27;13.80;;;10.73;;
15915;SDS011;8057;47.830;-3.870;2022-12-05T15:10:36;16.73;;;11.00;;
15915;SDS011;8057;47.830;-3.870;2022-12-05T15:14:48;14.53;;;10.27;;
15915;SDS011;8057;47.830;-3.870;2022-12-05T15:19:11;13.80;;;10.17;;
15915;SDS011;8057;47.830;-3.870;2022-12-05T15:23:38;13.30;;;9.20;;
15915;SDS011;8057;47.830;-3.870;2022-12-05T15:27:52;14.67;;;9.53;;
15915;SDS011;8057;47.830;-3.870;2022-12-05T15:32:03;15.13;;;10.07;;
15915;SDS011;8057;47.830;-3.870;2022-12-05T15:36:24;12.43;;;8.97;;
15915;SDS011;8057;47.830;-3.870;2022-12-05T15:40:43;12.40;;;9.47;;
15915;SDS011;8057;47.830;-3.870;2022-12-05T15:44:54;11.30;;;8.77;;
15915;SDS011;8057;47.830;-3.870;2022-12-05T15:49:23;14.57;;;9.40;;
15915;SDS011;8057;47.830;-3.870;2022-12-05T15:53:36;12.10;;;8.60;;
15915;SDS011;8057;47.830;-3.870;2022-12-05T15:57:51;10.37;;;7.73;;
15915;SDS011;8057;47.830;-3.870;2022-12-05T16:02:09;11.00;;;7.73;;
15915;SDS011;8057;47.830;-3.870;2022-12-05T16:06:23;11.60;;;7.30;;
15915;SDS011;8057;47.830;-3.870;2022-12-05T16:10:37;11.50;;;8.20;;
15915;SDS011;8057;47.830;-3.870;2022-12-05T16:14:48;10.67;;;8.00;;
15915;SDS011;8057;47.830;-3.870;2022-12-05T16:19:12;11.83;;;9.13;;
15915;SDS011;8057;47.830;-3.870;2022-12-05T16:23:24;15.10;;;9.10;;
15915;SDS011;8057;47.830;-3.870;2022-12-05T16:27:37;10.30;;;7.87;;
15915;SDS011;8057;47.830;-3.870;2022-12-05T16:31:51;11.77;;;8.30;;
15915;SDS011;8057;47.830;-3.870;2022-12-05T16:36:11;10.60;;;8.20;;
15915;SDS011;8057;47.830;-3.870;2022-12-05T16:40:21;13.60;;;8.93;;
15915;SDS011;8057;47.830;-3.870;2022-12-05T16:44:53;13.77;;;9.13;;
15915;SDS011;8057;47.830;-3.870;2022-12-05T16:49:17;14.37;;;9.57;;
15915;SDS011;8057;47.830;-3.870;2022-12-05T16:53:30;14.47;;;10.27;;
15915;SDS011;8057;47.830;-3.870;2022-12-05T16:57:40;13.50;;;9.60;;
15915;SDS011;8057;47.830;-3.870;2022-12-05T17:01:50;13.90;;;10.03;;
15915;SDS011;8057;47.830;-3.870;2022-12-05T17:06:00;16.73;;;11.83;;
15915;SDS011;8057;47.830;-3.870;2022-12-05T17:10:09;16.93;;;11.10;;
15915;SDS011;8057;47.830;-3.870;2022-12-05T17:14:18;17.63;;;12.27;;
15915;SDS011;8057;47.830;-3.870;2022-12-05T17:18:30;17.67;;;12.23;;
15915;SDS011;8057;47.830;-3.870;2022-12-05T17:22:40;16.83;;;12.53;;
15915;SDS011;8057;47.830;-3.870;2022-12-05T17:26:49;17.70;;;13.03;;
15915;SDS011;8057;47.830;-3.870;2022-12-05T17:30:58;18.80;;;12.33;;
15915;SDS011;8057;47.830;-3.870;2022-12-05T17:35:12;18.93;;;13.17;;
15915;SDS011;8057;47.830;-3.870;2022-12-05T17:39:23;18.10;;;12.93;;
15915;SDS011;8057;47.830;-3.870;2022-12-05T17:43:34;18.57;;;13.80;;
15915;SDS011;8057;47.830;-3.870;2022-12-05T17:47:44;19.37;;;13.60;;
15915;SDS011;8057;47.830;-3.870;2022-12-05T17:51:54;18.87;;;13.13;;
15915;SDS011;8057;47.830;-3.870;2022-12-05T17:56:26;19.80;;;13.27;;
15915;SDS011;8057;47.830;-3.870;2022-12-05T18:00:35;16.17;;;12.27;;
15915;SDS011;8057;47.830;-3.870;2022-12-05T18:04:44;17.90;;;12.40;;
15915;SDS011;8057;47.830;-3.870;2022-12-05T18:08:55;18.87;;;12.93;;
15915;SDS011;8057;47.830;-3.870;2022-12-05T18:13:04;16.83;;;13.00;;
15915;SDS011;8057;47.830;-3.870;2022-12-05T18:17:13;17.77;;;12.67;;
15915;SDS011;8057;47.830;-3.870;2022-12-05T18:21:22;18.70;;;13.13;;
15915;SDS011;8057;47.830;-3.870;2022-12-05T18:25:34;17.93;;;13.23;;
15915;SDS011;8057;47.830;-3.870;2022-12-05T18:29:43;19.77;;;14.37;;
15915;SDS011;8057;47.830;-3.870;2022-12-05T18:33:54;17.97;;;13.50;;
15915;SDS011;8057;47.830;-3.870;2022-12-05T18:38:03;17.03;;;12.73;;
15915;SDS011;8057;47.830;-3.870;2022-12-05T18:42:14;17.23;;;13.00;;
15915;SDS011;8057;47.830;-3.870;2022-12-05T18:46:23;17.97;;;12.90;;
15915;SDS011;8057;47.830;-3.870;2022-12-05T18:50:32;18.27;;;13.30;;
15915;SDS011;8057;47.830;-3.870;2022-12-05T18:54:41;17.73;;;11.90;;
15915;SDS011;8057;47.830;-3.870;2022-12-05T18:59:05;16.83;;;12.23;;
15915;SDS011;8057;47.830;-3.870;2022-12-05T19:03:15;18.57;;;13.20;;
15915;SDS011;8057;47.830;-3.870;2022-12-05T19:07:25;19.03;;;13.33;;
15915;SDS011;8057;47.830;-3.870;2022-12-05T19:11:34;16.03;;;12.60;;
15915;SDS011;8057;47.830;-3.870;2022-12-05T19:15:51;17.43;;;13.27;;
15915;SDS011;8057;47.830;-3.870;2022-12-05T19:20:07;19.63;;;13.53;;
15915;SDS011;8057;47.830;-3.870;2022-12-05T19:24:17;17.87;;;12.67;;
15915;SDS011;8057;47.830;-3.870;2022-12-05T19:28:26;15.93;;;12.40;;
15915;SDS011;8057;47.830;-3.870;2022-12-05T19:32:37;17.03;;;12.83;;
15915;SDS011;8057;47.830;-3.870;2022-12-05T19:36:46;17.80;;;13.40;;
15915;SDS011;8057;47.830;-3.870;2022-12-05T19:40:55;18.63;;;14.97;;
15915;SDS011;8057;47.830;-3.870;2022-12-05T19:45:05;21.37;;;14.97;;
15915;SDS011;8057;47.830;-3.870;2022-12-05T19:49:24;17.97;;;13.57;;
15915;SDS011;8057;47.830;-3.870;2022-12-05T19:53:34;20.03;;;13.83;;
15915;SDS011;8057;47.830;-3.870;2022-12-05T19:57:46;21.37;;;15.27;;
15915;SDS011;8057;47.830;-3.870;2022-12-05T20:01:56;20.47;;;14.47;;
15915;SDS011;8057;47.830;-3.870;2022-12-05T20:06:07;21.20;;;14.40;;
15915;SDS011;8057;47.830;-3.870;2022-12-05T20:10:16;23.00;;;16.03;;
15915;SDS011;8057;47.830;-3.870;2022-12-05T20:14:26;20.23;;;14.63;;
15915;SDS011;8057;47.830;-3.870;2022-12-05T20:18:35;18.90;;;14.07;;
15915;SDS011;8057;47.830;-3.870;2022-12-05T20:22:47;21.23;;;14.87;;
15915;SDS011;8057;47.830;-3.870;2022-12-05T20:26:56;20.97;;;15.30;;
15915;SDS011;8057;47.830;-3.870;2022-12-05T20:31:07;22.83;;;16.43;;
15915;SDS011;8057;47.830;-3.870;2022-12-05T20:35:18;21.67;;;14.90;;
15915;SDS011;8057;47.830;-3.870;2022-12-05T20:39:31;22.73;;;15.13;;
15915;SDS011;8057;47.830;-3.870;2022-12-05T20:43:41;21.00;;;15.07;;
15915;SDS011;8057;47.830;-3.870;2022-12-05T20:47:51;22.63;;;15.10;;
15915;SDS011;8057;47.830;-3.870;2022-12-05T20:52:00;21.80;;;15.87;;
15915;SDS011;8057;47.830;-3.870;2022-12-05T20:56:17;21.80;;;15.80;;
15915;SDS011;8057;47.830;-3.870;2022-12-05T21:00:55;22.00;;;15.10;;
15915;SDS011;8057;47.830;-3.870;2022-12-05T21:05:06;21.27;;;15.37;;
15915;SDS011;8057;47.830;-3.870;2022-12-05T21:09:19;20.40;;;15.23;;
15915;SDS011;8057;47.830;-3.870;2022-12-05T21:13:36;19.57;;;14.37;;
15915;SDS011;8057;47.830;-3.870;2022-12-05T21:17:46;21.43;;;15.43;;
15915;SDS011;8057;47.830;-3.870;2022-12-05T21:21:55;19.43;;;14.33;;
15915;SDS011;8057;47.830;-3.870;2022-12-05T21:26:06;20.33;;;15.67;;
15915;SDS011;8057;47.830;-3.870;2022-12-05T21:30:19;19.07;;;14.60;;
15915;SDS011;8057;47.830;-3.870;2022-12-05T21:34:29;19.00;;;14.20;;
15915;SDS011;8057;47.830;-3.870;2022-12-05T21:38:38;22.63;;;15.17;;
15915;SDS011;8057;47.830;-3.870;2022-12-05T21:42:48;18.13;;;14.70;;
15915;SDS011;8057;47.830;-3.870;2022-12-05T21:46:59;17.17;;;13.03;;
15915;SDS011;8057;47.830;-3.870;2022-12-05T21:51:08;20.07;;;15.17;;
15915;SDS011;8057;47.830;-3.870;2022-12-05T21:55:19;18.70;;;14.13;;
15915;SDS011;8057;47.830;-3.870;2022-12-05T21:59:28;19.40;;;14.53;;
15915;SDS011;8057;47.830;-3.870;2022-12-05T22:03:41;20.63;;;15.53;;
15915;SDS011;8057;47.830;-3.870;2022-12-05T22:07:50;20.30;;;15.27;;
15915;SDS011;8057;47.830;-3.870;2022-12-05T22:12:00;22.50;;;15.17;;
15915;SDS011;8057;47.830;-3.870;2022-12-05T22:16:09;20.27;;;14.23;;
15915;SDS011;8057;47.830;-3.870;2022-12-05T22:20:21;20.27;;;15.30;;
15915;SDS011;8057;47.830;-3.870;2022-12-05T22:24:30;18.80;;;14.10;;
15915;SDS011;8057;47.830;-3.870;2022-12-05T22:28:39;18.70;;;13.67;;
15915;SDS011;8057;47.830;-3.870;2022-12-05T22:32:51;18.80;;;14.10;;
15915;SDS011;8057;47.830;-3.870;2022-12-05T22:37:02;22.77;;;15.37;;
15915;SDS011;8057;47.830;-3.870;2022-12-05T22:41:12;23.00;;;16.67;;
15915;SDS011;8057;47.830;-3.870;2022-12-05T22:45:22;22.80;;;16.47;;
15915;SDS011;8057;47.830;-3.870;2022-12-05T22:49:31;22.17;;;15.73;;
15915;SDS011;8057;47.830;-3.870;2022-12-05T22:53:42;19.87;;;14.70;;
15915;SDS011;8057;47.830;-3.870;2022-12-05T22:57:52;21.33;;;15.93;;
15915;SDS011;8057;47.830;-3.870;2022-12-05T23:02:01;22.27;;;16.47;;
15915;SDS011;8057;47.830;-3.870;2022-12-05T23:06:10;22.77;;;16.23;;
15915;SDS011;8057;47.830;-3.870;2022-12-05T23:10:22;21.70;;;15.23;;
15915;SDS011;8057;47.830;-3.870;2022-12-05T23:14:31;23.53;;;16.80;;
15915;SDS011;8057;47.830;-3.870;2022-12-05T23:18:41;22.33;;;16.10;;
15915;SDS011;8057;47.830;-3.870;2022-12-05T23:22:53;23.33;;;17.43;;
15915;SDS011;8057;47.830;-3.870;2022-12-05T23:27:04;26.97;;;19.23;;
15915;SDS011;8057;47.830;-3.870;2022-12-05T23:31:13;25.97;;;17.63;;
15915;SDS011;8057;47.830;-3.870;2022-12-05T23:35:23;24.63;;;16.87;;
15915;SDS011;8057;47.830;-3.870;2022-12-05T23:39:33;22.57;;;17.00;;
15915;SDS011;8057;47.830;-3.870;2022-12-05T23:43:43;23.90;;;16.97;;
15915;SDS011;8057;47.830;-3.870;2022-12-05T23:47:53;24.80;;;17.33;;
15915;SDS011;8057;47.830;-3.870;2022-12-05T23:52:09;24.47;;;17.87;;
15915;SDS011;8057;47.830;-3.870;2022-12-05T23:56:19;27.40;;;19.53;;
